Terminal Aerodrome Forecast
Issued by NWS Wilmington, OH

Current Version | Previous Version | Graphics & Text | Print | Product List | Glossary On
Versions: 1 2 3 4 5 6 7 8 9 10 11 12 13 14 15 16 17 18 19 20 21
000
FTUS41 KILN 010900 AAA
TAFCVG
TAF AMD
KCVG 010902Z 0109/0212 34008KT P6SM OVC035
     FM011300 34009KT P6SM SCT040
     FM012300 34007KT P6SM SCT050
     FM020200 VRB03KT P6SM SCT040=

USA.gov is the U.S. government's official web portal to all federal, state and local government web resources and services.